KCDA

Details ICAO KCDA
Name Caledonia Co
Region United States
Timezone America/New_York (UTC-4.0)
Plans Departing 5
Arriving 7
Stats Elevation 1,187 ft / 362 m (AMSL)
Location 44.569061° -72.018434°
Runways 1
Magnetic Variation 14.827° W
Sunrise 2018-05-23 09:13:56 UTC / 2018-05-23 05:13:56 Local
Sunset 2018-05-24 00:18:37 UTC / 2018-05-23 20:18:37 Local
Advertisement - Login to hide

Runways

ID Width Length Bearing (true) Bearing (mag) Surface Threshold Offset Overrun Length
02 60 ft / 18 m 3,304 ft / 1,007 m 8.42° 23.25° Asphalt 0 ft / 0 m 0 ft / 0 m
20 60 ft / 18 m 3,304 ft / 1,007 m 188.42° 203.25° Asphalt 0 ft / 0 m 0 ft / 0 m

Map

Weather


0- 5 10 15 20 25 30 35+ Temperature / ° C

Clouds and Precipitation
Forecast for 2018-05-23 18:00 UTC. Updated an hour ago

Ground ~20,000 ft ~40,000 ft Winds

METAR

KCDA 231755Z AUTO 28014G20KT 10SM SCT110 21/11 A2990 RMK AO2 T02120105 10220 20124

TAF

Not found

Frequencies

Recorded 119.27 MHz AWOS 3
Approach 125.70 MHz BOSTON APP/DEP
Unicom 122.80 MHz CTAF/UNICOM
Warning: Do not use this data for real-world aviation or navigation. No guarantee of current accuracy is given.